createdAt,value
2023-01-09T00:00:58.674Z,8.66
2023-01-09T00:03:25.311Z,8.69
2023-01-09T00:05:52.821Z,8.57
2023-01-09T00:08:19.557Z,8.59
2023-01-09T00:13:18.426Z,8.64
2023-01-09T00:15:45.266Z,8.59
2023-01-09T00:18:11.867Z,8.60
2023-01-09T00:20:38.532Z,8.61
2023-01-09T00:23:05.291Z,8.62
2023-01-09T00:25:32.009Z,8.67
2023-01-09T00:27:58.562Z,8.64
2023-01-09T00:30:25.912Z,8.59
2023-01-09T00:32:54.476Z,8.62
2023-01-09T00:35:23.435Z,8.67
2023-01-09T00:37:49.985Z,8.65
2023-01-09T00:40:17.756Z,8.71
2023-01-09T00:42:51.135Z,8.65
2023-01-09T00:45:28.695Z,8.66
2023-01-09T00:47:59.677Z,8.62
2023-01-09T00:50:30.967Z,8.72
2023-01-09T00:53:00.980Z,8.75
2023-01-09T00:55:27.816Z,8.85
2023-01-09T00:57:56.000Z,8.74
2023-01-09T01:00:22.838Z,8.70
2023-01-09T01:02:49.516Z,8.71
2023-01-09T01:05:35.070Z,8.65
2023-01-09T01:08:01.647Z,8.67
2023-01-09T01:10:28.268Z,8.70
2023-01-09T01:15:29.617Z,8.70
2023-01-09T01:20:31.505Z,8.81
2023-01-09T01:22:58.160Z,8.73
2023-01-09T01:25:25.077Z,8.74
2023-01-09T01:27:51.832Z,8.80
2023-01-09T01:30:19.445Z,8.89
2023-01-09T01:32:46.540Z,8.94
2023-01-09T01:35:13.842Z,8.87
2023-01-09T01:37:40.781Z,8.82
2023-01-09T01:40:09.362Z,8.76
2023-01-09T01:42:35.953Z,8.69
2023-01-09T01:45:09.719Z,8.78
2023-01-09T01:50:46.231Z,8.78
2023-01-09T01:56:06.332Z,8.80
2023-01-09T01:58:37.268Z,8.77
2023-01-09T02:01:03.974Z,8.78
2023-01-09T02:06:05.041Z,8.75
2023-01-09T02:11:23.405Z,8.69
2023-01-09T02:13:56.264Z,8.68
2023-01-09T02:16:52.050Z,8.75
2023-01-09T02:19:54.380Z,8.70
2023-01-09T02:22:47.024Z,8.74
2023-01-09T02:25:38.373Z,8.72
2023-01-09T02:28:36.995Z,8.81
2023-01-09T02:31:39.111Z,8.83
2023-01-09T02:34:17.730Z,8.83
2023-01-09T02:37:07.371Z,8.79
2023-01-09T02:39:47.291Z,8.87
2023-01-09T02:42:25.547Z,8.90
2023-01-09T02:44:58.249Z,8.92
2023-01-09T02:47:30.869Z,8.88
2023-01-09T02:50:08.892Z,8.85
2023-01-09T02:52:41.527Z,8.78
2023-01-09T03:08:40.287Z,8.92
2023-01-09T03:11:09.172Z,8.90
2023-01-09T03:13:50.612Z,8.90
2023-01-09T03:16:35.144Z,8.79
2023-01-09T03:19:04.228Z,8.78
2023-01-09T03:21:33.163Z,8.78
2023-01-09T03:24:01.960Z,8.72
2023-01-09T03:29:03.236Z,8.63
2023-01-09T03:31:30.016Z,8.57
2023-01-09T03:33:56.853Z,8.56
2023-01-09T03:36:24.566Z,8.56
2023-01-09T03:38:51.640Z,8.57
2023-01-09T03:41:19.813Z,8.56
2023-01-09T03:43:48.644Z,8.54
2023-01-09T03:46:16.723Z,8.63
2023-01-09T03:48:43.837Z,8.39
2023-01-09T03:51:10.418Z,8.35
2023-01-09T03:53:36.958Z,8.37
2023-01-09T03:56:03.952Z,8.33
2023-01-09T03:58:30.733Z,8.25
2023-01-09T04:01:00.550Z,8.20
2023-01-09T04:03:27.569Z,8.18
2023-01-09T04:05:54.682Z,8.25
2023-01-09T04:08:21.658Z,8.25
2023-01-09T04:15:54.005Z,8.12
2023-01-09T04:18:20.638Z,8.06
2023-01-09T04:20:48.366Z,8.07
2023-01-09T04:23:15.064Z,8.03
2023-01-09T04:25:41.650Z,7.94
2023-01-09T04:28:08.264Z,7.94
2023-01-09T04:30:34.970Z,7.93
2023-01-09T04:33:01.499Z,7.81
2023-01-09T04:35:28.110Z,7.76
2023-01-09T04:37:54.710Z,7.67
2023-01-09T04:40:21.286Z,7.55
2023-01-09T04:42:47.876Z,7.52
2023-01-09T04:45:15.771Z,7.47
2023-01-09T04:47:42.380Z,7.51
2023-01-09T04:50:10.576Z,7.60
2023-01-09T04:52:38.921Z,7.51
2023-01-09T04:55:07.610Z,7.58
2023-01-09T04:57:35.116Z,7.63
2023-01-09T05:00:02.117Z,7.61
2023-01-09T05:02:28.690Z,7.52
2023-01-09T05:04:55.301Z,7.49
2023-01-09T05:07:21.840Z,7.51
2023-01-09T05:09:48.463Z,7.44
2023-01-09T05:12:15.007Z,7.37
2023-01-09T05:14:41.552Z,7.39
2023-01-09T05:17:08.114Z,7.47
2023-01-09T05:19:34.766Z,7.45
2023-01-09T05:22:01.362Z,7.53
2023-01-09T05:24:27.982Z,7.49
2023-01-09T05:26:54.543Z,7.47
2023-01-09T05:29:21.161Z,7.48
2023-01-09T05:34:20.838Z,7.61
2023-01-09T05:39:25.127Z,7.59
2023-01-09T05:41:51.724Z,7.58
2023-01-09T05:44:18.510Z,7.52
2023-01-09T05:46:45.088Z,7.55
2023-01-09T05:49:11.822Z,7.42
2023-01-09T05:51:38.499Z,7.36
2023-01-09T05:54:07.579Z,7.43
2023-01-09T05:56:34.170Z,7.47
2023-01-09T06:01:38.399Z,7.48
2023-01-09T06:04:05.057Z,7.42
2023-01-09T06:06:31.790Z,7.38
2023-01-09T06:08:58.371Z,7.34
2023-01-09T06:11:24.975Z,7.32
2023-01-09T06:13:51.550Z,7.29
2023-01-09T06:16:18.497Z,7.35
2023-01-09T06:18:45.170Z,7.39
2023-01-09T06:21:11.809Z,7.36
2023-01-09T06:23:38.414Z,7.38
2023-01-09T06:26:05.020Z,7.25
2023-01-09T06:28:31.539Z,7.37
2023-01-09T06:30:58.147Z,7.28
2023-01-09T06:33:24.732Z,7.27
2023-01-09T06:35:51.463Z,7.20
2023-01-09T06:38:18.139Z,7.21
2023-01-09T06:40:44.714Z,7.20
2023-01-09T06:43:11.269Z,7.16
2023-01-09T06:45:37.845Z,7.17
2023-01-09T06:48:04.595Z,7.15
2023-01-09T06:50:31.203Z,7.09
2023-01-09T06:52:57.952Z,7.12
2023-01-09T06:55:26.543Z,7.10
2023-01-09T06:57:53.508Z,7.01
2023-01-09T07:00:20.599Z,6.95
2023-01-09T07:02:47.241Z,7.02
2023-01-09T07:05:13.898Z,7.03
2023-01-09T07:07:41.340Z,7.00
2023-01-09T07:10:09.218Z,6.95
2023-01-09T07:12:35.916Z,6.85
2023-01-09T07:17:33.780Z,6.75
2023-01-09T07:20:00.927Z,6.83
2023-01-09T07:22:27.530Z,6.83
2023-01-09T07:24:54.108Z,6.91
2023-01-09T07:27:21.622Z,6.98
2023-01-09T07:29:48.236Z,7.00
2023-01-09T07:32:14.813Z,7.12
2023-01-09T07:34:41.383Z,7.20
2023-01-09T07:37:07.962Z,7.22
2023-01-09T07:39:34.614Z,7.17
2023-01-09T07:42:01.228Z,7.15
2023-01-09T07:44:27.853Z,7.10
2023-01-09T07:46:54.419Z,7.02
2023-01-09T07:49:20.975Z,7.01
2023-01-09T07:51:48.464Z,7.04
2023-01-09T07:54:16.182Z,7.01
2023-01-09T07:56:42.846Z,7.03
2023-01-09T07:59:09.666Z,7.02
2023-01-09T08:01:36.360Z,6.98
2023-01-09T08:04:03.104Z,6.97
2023-01-09T08:06:30.203Z,7.06
2023-01-09T08:08:57.877Z,7.08
2023-01-09T08:11:24.933Z,7.02
2023-01-09T08:13:51.990Z,7.10
2023-01-09T08:16:18.787Z,7.18
2023-01-09T08:18:45.371Z,7.18
2023-01-09T08:21:11.955Z,7.25
2023-01-09T08:23:38.656Z,7.26
2023-01-09T08:26:05.324Z,7.25
2023-01-09T08:28:32.440Z,7.29
2023-01-09T08:30:59.218Z,7.40
2023-01-09T08:33:26.811Z,7.36
2023-01-09T08:35:54.318Z,7.40
2023-01-09T08:38:22.479Z,7.36
2023-01-09T08:40:49.159Z,7.32
2023-01-09T08:43:34.386Z,7.26
2023-01-09T08:46:21.286Z,7.35
2023-01-09T08:48:48.508Z,7.41
2023-01-09T08:51:15.385Z,7.55
2023-01-09T08:53:42.083Z,7.67
2023-01-09T08:56:08.713Z,7.76
2023-01-09T08:58:35.276Z,7.79
2023-01-09T09:01:05.616Z,7.84
2023-01-09T09:03:32.194Z,7.88
2023-01-09T09:05:58.824Z,7.84
2023-01-09T09:08:25.487Z,7.87
2023-01-09T09:10:52.033Z,7.84
2023-01-09T09:13:18.636Z,7.88
2023-01-09T09:15:45.320Z,7.94
2023-01-09T09:18:12.062Z,7.94
2023-01-09T09:20:39.283Z,8.06
2023-01-09T09:23:08.318Z,8.14
2023-01-09T09:28:07.602Z,8.36
2023-01-09T09:30:34.890Z,8.54
2023-01-09T09:33:04.486Z,8.68
2023-01-09T09:35:33.843Z,8.87
2023-01-09T09:38:04.993Z,9.03
2023-01-09T09:41:30.471Z,9.19
2023-01-09T09:44:52.614Z,9.36
2023-01-09T09:47:35.366Z,9.63
2023-01-09T09:50:31.188Z,9.83
2023-01-09T09:53:19.513Z,9.63
2023-01-09T09:55:49.675Z,9.45
2023-01-09T09:58:23.386Z,9.34
2023-01-09T10:03:34.360Z,9.11
2023-01-09T10:06:05.333Z,8.94
2023-01-09T10:08:46.791Z,8.97
2023-01-09T10:11:20.316Z,8.95
2023-01-09T10:14:06.417Z,9.05
2023-01-09T10:16:58.944Z,9.00
2023-01-09T10:19:28.199Z,8.98
2023-01-09T10:22:17.143Z,9.05
2023-01-09T10:25:00.774Z,8.99
2023-01-09T10:27:56.064Z,8.98
2023-01-09T10:30:28.094Z,8.97
2023-01-09T10:33:13.539Z,8.96
2023-01-09T10:36:00.298Z,8.96
2023-01-09T10:38:35.656Z,9.00
2023-01-09T10:41:14.040Z,9.00
2023-01-09T10:43:53.604Z,9.06
2023-01-09T10:46:28.991Z,9.03
2023-01-09T10:49:00.847Z,8.99
2023-01-09T10:51:39.836Z,9.05
2023-01-09T10:57:13.010Z,8.96
2023-01-09T10:59:41.818Z,9.06
2023-01-09T11:04:58.216Z,9.06
2023-01-09T11:07:31.908Z,9.09
2023-01-09T11:10:17.554Z,9.14
2023-01-09T11:15:32.028Z,9.19
2023-01-09T11:18:17.754Z,9.23
2023-01-09T11:20:44.759Z,9.20
2023-01-09T11:23:31.307Z,9.18
2023-01-09T11:26:00.975Z,9.18
2023-01-09T11:28:28.425Z,9.16
2023-01-09T11:31:01.005Z,9.18
2023-01-09T11:33:37.413Z,9.18
2023-01-09T11:36:10.879Z,9.07
2023-01-09T11:38:55.627Z,9.12
2023-01-09T11:41:34.600Z,9.07
2023-01-09T11:44:04.281Z,9.10
2023-01-09T11:46:34.585Z,9.21
2023-01-09T11:49:03.357Z,9.11
2023-01-09T11:51:32.605Z,9.19
2023-01-09T11:54:14.477Z,9.11
2023-01-09T11:56:41.666Z,9.20
2023-01-09T11:59:13.875Z,9.16
2023-01-09T12:02:15.276Z,9.47
2023-01-09T12:05:12.734Z,9.28
2023-01-09T12:07:45.436Z,9.26
2023-01-09T12:10:37.257Z,9.24
2023-01-09T12:13:22.491Z,9.31
2023-01-09T12:16:14.620Z,9.44
2023-01-09T12:18:56.404Z,9.43
2023-01-09T12:21:40.863Z,9.56
2023-01-09T12:27:30.649Z,9.65
2023-01-09T12:30:26.324Z,9.46
2023-01-09T12:33:07.920Z,9.36
2023-01-09T12:35:59.497Z,9.37
2023-01-09T12:38:41.590Z,9.38
2023-01-09T12:41:23.159Z,9.35
2023-01-09T12:44:34.980Z,9.31
2023-01-09T12:47:15.932Z,9.18
2023-01-09T12:50:09.845Z,9.08
2023-01-09T12:52:44.216Z,9.04
2023-01-09T12:55:18.852Z,8.98
2023-01-09T12:57:50.266Z,8.76
2023-01-09T13:00:23.538Z,8.51
2023-01-09T13:03:12.996Z,8.67
2023-01-09T13:05:50.186Z,8.67
2023-01-09T13:08:36.419Z,8.81
2023-01-09T13:11:27.388Z,8.70
2023-01-09T13:14:12.627Z,8.64
2023-01-09T13:16:46.146Z,8.61
2023-01-09T13:19:23.623Z,8.65
2023-01-09T13:21:51.242Z,8.76
2023-01-09T13:24:29.816Z,8.57
2023-01-09T13:27:05.527Z,8.52
2023-01-09T13:29:38.134Z,8.53
2023-01-09T13:32:30.779Z,8.66
2023-01-09T13:34:57.994Z,8.57
2023-01-09T13:37:31.235Z,8.54
2023-01-09T13:40:00.853Z,8.48
2023-01-09T13:42:46.099Z,8.59
2023-01-09T13:45:18.314Z,8.51
2023-01-09T13:47:45.259Z,8.44
2023-01-09T13:50:11.811Z,8.27
2023-01-09T13:52:39.312Z,8.39
2023-01-09T13:55:11.806Z,8.40
2023-01-09T13:57:43.105Z,8.40
2023-01-09T14:00:12.339Z,8.40
2023-01-09T14:02:38.878Z,8.43
2023-01-09T14:05:24.934Z,8.36
2023-01-09T14:08:11.937Z,8.33
2023-01-09T14:10:48.229Z,8.31
2023-01-09T14:13:18.800Z,8.13
2023-01-09T14:15:47.260Z,8.07
2023-01-09T14:18:18.321Z,7.95
2023-01-09T14:21:00.600Z,7.80
2023-01-09T14:23:45.936Z,7.72
2023-01-09T14:26:22.858Z,7.81
2023-01-09T14:28:49.778Z,7.89
2023-01-09T14:31:31.369Z,7.89
2023-01-09T14:34:30.963Z,7.97
2023-01-09T14:37:01.620Z,7.91
2023-01-09T14:39:32.014Z,7.89
2023-01-09T14:42:06.385Z,7.89
2023-01-09T14:44:50.903Z,7.85
2023-01-09T14:47:36.209Z,7.88
2023-01-09T14:50:17.863Z,7.85
2023-01-09T14:53:13.305Z,7.77
2023-01-09T14:56:00.771Z,7.69
2023-01-09T14:58:28.444Z,7.81
2023-01-09T15:01:12.611Z,7.64
2023-01-09T15:03:46.334Z,7.78
2023-01-09T15:06:25.161Z,7.66
2023-01-09T15:09:26.039Z,7.60
2023-01-09T15:11:57.273Z,7.65
2023-01-09T15:17:22.913Z,7.65
2023-01-09T15:19:49.823Z,7.74
2023-01-09T15:22:28.555Z,7.76
2023-01-09T15:24:55.361Z,7.70
2023-01-09T15:27:23.463Z,7.76
2023-01-09T15:29:51.052Z,7.70
2023-01-09T15:32:29.985Z,7.77
2023-01-09T15:34:57.900Z,7.74
2023-01-09T15:37:39.054Z,7.82
2023-01-09T15:40:08.125Z,7.81
2023-01-09T15:42:57.494Z,7.68
2023-01-09T15:45:37.335Z,7.71
2023-01-09T15:48:22.175Z,7.93
2023-01-09T15:50:53.203Z,7.80
2023-01-09T15:56:24.116Z,7.65
2023-01-09T15:58:52.022Z,7.34
2023-01-09T16:01:25.689Z,7.13
2023-01-09T16:03:56.285Z,6.94
2023-01-09T16:11:55.539Z,6.61
2023-01-09T16:14:33.170Z,6.73
2023-01-09T16:17:03.773Z,7.40
2023-01-09T16:19:33.354Z,7.05
2023-01-09T16:22:03.012Z,6.96
2023-01-09T16:24:41.849Z,7.21
2023-01-09T16:27:30.520Z,7.06
2023-01-09T16:30:27.487Z,7.02
2023-01-09T16:32:54.149Z,6.92
2023-01-09T16:35:24.975Z,6.99
2023-01-09T16:37:51.569Z,6.96
2023-01-09T16:40:18.095Z,6.85
2023-01-09T16:43:00.511Z,6.87
2023-01-09T16:48:20.760Z,6.90
2023-01-09T16:50:47.373Z,6.91
2023-01-09T16:53:19.464Z,6.83
2023-01-09T16:55:46.761Z,6.88
2023-01-09T16:58:26.698Z,6.94
2023-01-09T17:00:53.459Z,6.90
2023-01-09T17:03:20.567Z,7.08
2023-01-09T17:05:55.741Z,7.12
2023-01-09T17:08:25.435Z,7.07
2023-01-09T17:10:53.492Z,7.06
2023-01-09T17:18:31.933Z,6.98
2023-01-09T17:20:59.477Z,7.04
2023-01-09T17:23:26.186Z,7.10
2023-01-09T17:26:16.829Z,7.05
2023-01-09T17:28:49.285Z,7.01
2023-01-09T17:31:15.961Z,6.98
2023-01-09T17:33:42.897Z,7.54
2023-01-09T17:36:32.485Z,7.20
2023-01-09T17:38:59.758Z,7.04
2023-01-09T17:41:29.450Z,7.01
2023-01-09T17:43:57.541Z,6.91
2023-01-09T17:46:32.596Z,6.98
2023-01-09T17:49:00.863Z,6.84
2023-01-09T17:51:28.258Z,6.77
2023-01-09T17:53:55.711Z,6.74
2023-01-09T17:56:25.636Z,6.81
2023-01-09T17:58:53.078Z,6.81
2023-01-09T18:01:20.531Z,6.89
2023-01-09T18:03:49.047Z,6.79
2023-01-09T18:08:58.167Z,6.82
2023-01-09T18:11:25.496Z,6.79
2023-01-09T18:13:56.445Z,6.86
2023-01-09T18:16:25.788Z,6.71
2023-01-09T18:18:54.090Z,6.75
2023-01-09T18:21:23.671Z,6.72
2023-01-09T18:23:50.337Z,6.72
2023-01-09T18:26:21.308Z,6.81
2023-01-09T18:29:06.258Z,6.70
2023-01-09T18:31:33.594Z,6.65
2023-01-09T18:36:35.019Z,6.62
2023-01-09T18:39:04.488Z,6.70
2023-01-09T18:41:31.728Z,6.86
2023-01-09T18:44:00.405Z,7.02
2023-01-09T18:46:31.017Z,6.93
2023-01-09T18:49:02.873Z,6.83
2023-01-09T18:54:01.410Z,6.75
2023-01-09T18:59:01.755Z,6.67
2023-01-09T19:01:29.822Z,6.65
2023-01-09T19:03:57.671Z,6.51
2023-01-09T19:06:24.364Z,6.50
2023-01-09T19:08:51.027Z,6.37
2023-01-09T19:11:18.017Z,6.35
2023-01-09T19:16:21.935Z,6.33
2023-01-09T19:18:48.676Z,6.33
2023-01-09T19:21:18.206Z,6.31
2023-01-09T19:23:45.845Z,6.34
2023-01-09T19:26:20.351Z,6.37
2023-01-09T19:28:47.916Z,6.33
2023-01-09T19:31:15.819Z,6.26
2023-01-09T19:33:43.672Z,6.26
2023-01-09T19:36:10.631Z,6.26
2023-01-09T19:38:38.479Z,6.22
2023-01-09T19:41:14.634Z,6.16
2023-01-09T19:43:41.912Z,6.15
2023-01-09T19:46:10.392Z,6.22
2023-01-09T19:48:37.770Z,6.22
2023-01-09T19:51:06.352Z,6.10
2023-01-09T19:53:35.036Z,6.22
2023-01-09T19:56:11.786Z,6.05
2023-01-09T19:58:39.599Z,6.09
2023-01-09T20:01:13.558Z,6.13
2023-01-09T20:03:41.510Z,6.19
2023-01-09T20:06:14.166Z,6.09
2023-01-09T20:08:42.263Z,6.19
2023-01-09T20:11:09.248Z,5.98
2023-01-09T20:13:36.160Z,6.12
2023-01-09T20:16:03.762Z,6.09
2023-01-09T20:18:32.125Z,6.07
2023-01-09T20:20:58.812Z,6.12
2023-01-09T20:23:32.451Z,6.19
2023-01-09T20:26:00.018Z,6.06
2023-01-09T20:28:27.901Z,6.11
2023-01-09T20:30:54.768Z,6.07
2023-01-09T20:33:22.069Z,6.14
2023-01-09T20:35:48.746Z,6.18
2023-01-09T20:38:15.893Z,6.12
2023-01-09T20:40:45.706Z,6.16
2023-01-09T20:43:13.002Z,6.22
2023-01-09T20:45:40.544Z,6.22
2023-01-09T20:48:07.588Z,6.15
2023-01-09T20:50:34.227Z,6.13
2023-01-09T20:53:00.754Z,6.09
2023-01-09T20:55:27.395Z,6.08
2023-01-09T20:57:54.018Z,6.04
2023-01-09T21:00:20.974Z,6.08
2023-01-09T21:02:47.636Z,6.01
2023-01-09T21:05:14.214Z,6.06
2023-01-09T21:07:40.823Z,6.07
2023-01-09T21:10:07.788Z,6.11
2023-01-09T21:12:37.859Z,6.04
2023-01-09T21:15:09.130Z,6.09
2023-01-09T21:17:37.016Z,6.23
2023-01-09T21:20:06.165Z,6.25
2023-01-09T21:25:06.097Z,6.28
2023-01-09T21:27:36.398Z,6.27
2023-01-09T21:30:05.254Z,6.34
2023-01-09T21:32:32.947Z,6.32
2023-01-09T21:35:04.318Z,6.34
2023-01-09T21:37:33.503Z,6.40
2023-01-09T21:42:57.016Z,6.35
2023-01-09T21:45:42.217Z,6.50
2023-01-09T21:48:08.877Z,6.52
2023-01-09T21:50:36.184Z,6.58
2023-01-09T21:53:04.029Z,6.45
2023-01-09T21:55:33.537Z,6.31
2023-01-09T21:58:03.648Z,6.43
2023-01-09T22:00:30.665Z,6.29
2023-01-09T22:02:57.871Z,6.45
2023-01-09T22:05:25.067Z,6.59
2023-01-09T22:07:51.864Z,6.66
2023-01-09T22:13:10.677Z,6.38
2023-01-09T22:15:37.425Z,6.44
2023-01-09T22:20:41.362Z,6.54
2023-01-09T22:23:07.987Z,6.64
2023-01-09T22:25:37.079Z,6.67
2023-01-09T22:28:04.624Z,6.60
2023-01-09T22:30:31.329Z,6.55
2023-01-09T22:32:57.984Z,6.62
2023-01-09T22:35:24.516Z,6.61
2023-01-09T22:37:51.002Z,6.65
2023-01-09T22:40:17.833Z,6.46
2023-01-09T22:42:44.474Z,6.57
2023-01-09T22:45:11.300Z,6.51
2023-01-09T22:50:09.727Z,6.56
2023-01-09T22:52:36.259Z,6.52
2023-01-09T22:55:02.975Z,6.46
2023-01-09T23:00:08.417Z,6.51
2023-01-09T23:02:35.326Z,6.51
2023-01-09T23:05:02.015Z,6.48
2023-01-09T23:07:28.565Z,6.44
2023-01-09T23:09:57.070Z,6.49
2023-01-09T23:12:23.649Z,6.54
2023-01-09T23:14:50.260Z,6.37
2023-01-09T23:17:16.794Z,6.41
2023-01-09T23:19:43.501Z,6.26
2023-01-09T23:22:10.104Z,6.25
2023-01-09T23:24:36.747Z,6.24
2023-01-09T23:27:04.508Z,6.18
2023-01-09T23:29:31.188Z,6.10
2023-01-09T23:31:58.252Z,6.16
2023-01-09T23:34:27.317Z,6.13
2023-01-09T23:36:57.516Z,6.06
2023-01-09T23:39:24.249Z,6.08
2023-01-09T23:42:09.683Z,5.91
2023-01-09T23:44:38.961Z,6.04
2023-01-09T23:47:05.566Z,6.06
2023-01-09T23:49:32.169Z,6.10
2023-01-09T23:52:01.688Z,6.10
2023-01-09T23:54:28.775Z,6.11
2023-01-09T23:56:56.811Z,6.09
2023-01-09T23:59:23.711Z,6.16
